sensor_id;sensor_type;location;lat;lon;timestamp;pressure;altitude;pressure_sealevel;temperature;humidity
70027;BME280;57506;50.092;15.804;2023-02-10T00:02:24;100911.56;;;-6.65;100.00
70027;BME280;57506;50.092;15.804;2023-02-10T00:04:49;100902.34;;;-6.80;100.00
70027;BME280;57506;50.092;15.804;2023-02-10T00:07:17;100893.06;;;-6.90;100.00
70027;BME280;57506;50.092;15.804;2023-02-10T00:09:42;100897.53;;;-6.95;100.00
70027;BME280;57506;50.092;15.804;2023-02-10T00:12:08;100885.22;;;-6.91;100.00
70027;BME280;57506;50.092;15.804;2023-02-10T00:14:35;100885.34;;;-6.96;100.00
70027;BME280;57506;50.092;15.804;2023-02-10T00:17:00;100864.66;;;-7.05;100.00
70027;BME280;57506;50.092;15.804;2023-02-10T00:19:27;100888.50;;;-6.83;100.00
70027;BME280;57506;50.092;15.804;2023-02-10T00:21:53;100887.28;;;-6.72;100.00
70027;BME280;57506;50.092;15.804;2023-02-10T00:24:20;100888.19;;;-6.73;100.00
70027;BME280;57506;50.092;15.804;2023-02-10T00:26:45;100876.19;;;-6.81;100.00
70027;BME280;57506;50.092;15.804;2023-02-10T00:29:11;100853.81;;;-6.93;100.00
70027;BME280;57506;50.092;15.804;2023-02-10T00:31:36;100883.47;;;-6.91;100.00
70027;BME280;57506;50.092;15.804;2023-02-10T00:34:02;100894.38;;;-7.06;100.00
70027;BME280;57506;50.092;15.804;2023-02-10T00:36:27;100888.31;;;-7.08;100.00
70027;BME280;57506;50.092;15.804;2023-02-10T00:38:53;100872.63;;;-7.10;100.00
70027;BME280;57506;50.092;15.804;2023-02-10T00:41:21;100896.34;;;-7.14;100.00
70027;BME280;57506;50.092;15.804;2023-02-10T00:43:47;100893.22;;;-7.28;100.00
70027;BME280;57506;50.092;15.804;2023-02-10T00:46:14;100912.38;;;-7.26;100.00
70027;BME280;57506;50.092;15.804;2023-02-10T00:48:40;100894.38;;;-7.38;100.00
70027;BME280;57506;50.092;15.804;2023-02-10T00:51:05;100897.13;;;-7.45;100.00
70027;BME280;57506;50.092;15.804;2023-02-10T00:53:31;100914.84;;;-7.54;100.00
70027;BME280;57506;50.092;15.804;2023-02-10T00:55:57;100916.66;;;-7.58;100.00
70027;BME280;57506;50.092;15.804;2023-02-10T00:58:23;100912.84;;;-7.45;100.00
70027;BME280;57506;50.092;15.804;2023-02-10T01:00:49;100901.72;;;-7.53;100.00
70027;BME280;57506;50.092;15.804;2023-02-10T01:03:15;100898.13;;;-7.49;100.00
70027;BME280;57506;50.092;15.804;2023-02-10T01:05:40;100904.41;;;-7.56;100.00
70027;BME280;57506;50.092;15.804;2023-02-10T01:08:06;100902.84;;;-7.63;100.00
70027;BME280;57506;50.092;15.804;2023-02-10T01:10:32;100907.25;;;-7.65;100.00
70027;BME280;57506;50.092;15.804;2023-02-10T01:13:01;100914.50;;;-7.76;100.00
70027;BME280;57506;50.092;15.804;2023-02-10T01:15:26;100912.09;;;-7.85;100.00
70027;BME280;57506;50.092;15.804;2023-02-10T01:17:52;100897.69;;;-8.03;100.00
70027;BME280;57506;50.092;15.804;2023-02-10T01:20:18;100914.06;;;-7.95;100.00
70027;BME280;57506;50.092;15.804;2023-02-10T01:22:43;100888.16;;;-8.05;100.00
70027;BME280;57506;50.092;15.804;2023-02-10T01:25:09;100899.91;;;-7.86;100.00
70027;BME280;57506;50.092;15.804;2023-02-10T01:27:34;100912.59;;;-8.06;100.00
70027;BME280;57506;50.092;15.804;2023-02-10T01:30:00;100914.53;;;-8.15;100.00
70027;BME280;57506;50.092;15.804;2023-02-10T01:32:26;100897.06;;;-8.13;100.00
70027;BME280;57506;50.092;15.804;2023-02-10T01:34:52;100891.59;;;-8.03;100.00
70027;BME280;57506;50.092;15.804;2023-02-10T01:37:17;100871.53;;;-8.03;100.00
70027;BME280;57506;50.092;15.804;2023-02-10T01:39:43;100890.88;;;-8.10;100.00
70027;BME280;57506;50.092;15.804;2023-02-10T01:42:12;100874.81;;;-8.30;100.00
70027;BME280;57506;50.092;15.804;2023-02-10T01:47:04;100901.09;;;-8.35;100.00
70027;BME280;57506;50.092;15.804;2023-02-10T01:49:37;100865.66;;;-8.48;100.00
70027;BME280;57506;50.092;15.804;2023-02-10T01:52:12;100859.72;;;-8.56;100.00
70027;BME280;57506;50.092;15.804;2023-02-10T01:55:00;100875.00;;;-8.38;100.00
70027;BME280;57506;50.092;15.804;2023-02-10T01:57:29;100848.59;;;-7.58;100.00
70027;BME280;57506;50.092;15.804;2023-02-10T01:59:55;100830.78;;;-7.13;100.00
70027;BME280;57506;50.092;15.804;2023-02-10T02:02:21;100820.56;;;-6.91;100.00
70027;BME280;57506;50.092;15.804;2023-02-10T02:04:50;100844.59;;;-7.06;100.00
70027;BME280;57506;50.092;15.804;2023-02-10T02:07:17;100850.81;;;-7.10;100.00
70027;BME280;57506;50.092;15.804;2023-02-10T02:09:44;100839.72;;;-6.89;100.00
70027;BME280;57506;50.092;15.804;2023-02-10T02:12:20;100837.72;;;-6.81;100.00
70027;BME280;57506;50.092;15.804;2023-02-10T02:26:47;100860.34;;;-6.77;100.00
70027;BME280;57506;50.092;15.804;2023-02-10T02:29:24;100859.44;;;-7.07;100.00
70027;BME280;57506;50.092;15.804;2023-02-10T02:31:59;100865.63;;;-7.09;100.00
70027;BME280;57506;50.092;15.804;2023-02-10T02:34:38;100859.69;;;-7.14;100.00
70027;BME280;57506;50.092;15.804;2023-02-10T02:37:09;100862.78;;;-7.00;100.00
70027;BME280;57506;50.092;15.804;2023-02-10T02:39:36;100872.94;;;-7.20;100.00
70027;BME280;57506;50.092;15.804;2023-02-10T02:44:39;100886.50;;;-7.72;100.00
70027;BME280;57506;50.092;15.804;2023-02-10T02:47:29;100888.59;;;-7.87;100.00
70027;BME280;57506;50.092;15.804;2023-02-10T02:50:22;100892.44;;;-8.01;100.00
70027;BME280;57506;50.092;15.804;2023-02-10T02:58:37;100865.22;;;-7.94;100.00
70027;BME280;57506;50.092;15.804;2023-02-10T03:01:15;100863.63;;;-8.00;100.00
70027;BME280;57506;50.092;15.804;2023-02-10T03:03:41;100870.97;;;-8.16;100.00
70027;BME280;57506;50.092;15.804;2023-02-10T03:06:07;100876.81;;;-8.41;100.00
70027;BME280;57506;50.092;15.804;2023-02-10T03:08:34;100860.13;;;-8.76;100.00
70027;BME280;57506;50.092;15.804;2023-02-10T03:11:01;100888.88;;;-8.76;100.00
70027;BME280;57506;50.092;15.804;2023-02-10T03:13:27;100894.25;;;-8.82;100.00
70027;BME280;57506;50.092;15.804;2023-02-10T03:15:52;100896.94;;;-8.87;100.00
70027;BME280;57506;50.092;15.804;2023-02-10T03:18:18;100892.06;;;-9.05;100.00
70027;BME280;57506;50.092;15.804;2023-02-10T03:20:43;100879.91;;;-9.06;100.00
70027;BME280;57506;50.092;15.804;2023-02-10T03:23:09;100889.47;;;-9.05;100.00
70027;BME280;57506;50.092;15.804;2023-02-10T03:25:35;100879.69;;;-8.94;100.00
70027;BME280;57506;50.092;15.804;2023-02-10T03:28:00;100883.19;;;-8.95;100.00
70027;BME280;57506;50.092;15.804;2023-02-10T03:30:26;100856.97;;;-8.92;100.00
70027;BME280;57506;50.092;15.804;2023-02-10T03:32:51;100861.06;;;-8.77;100.00
70027;BME280;57506;50.092;15.804;2023-02-10T03:35:19;100883.75;;;-8.80;100.00
70027;BME280;57506;50.092;15.804;2023-02-10T03:37:44;100877.97;;;-8.95;100.00
70027;BME280;57506;50.092;15.804;2023-02-10T03:40:10;100877.38;;;-8.67;100.00
70027;BME280;57506;50.092;15.804;2023-02-10T03:42:36;100864.53;;;-8.76;100.00
70027;BME280;57506;50.092;15.804;2023-02-10T03:45:01;100871.34;;;-8.71;100.00
70027;BME280;57506;50.092;15.804;2023-02-10T03:47:27;100883.53;;;-8.70;100.00
70027;BME280;57506;50.092;15.804;2023-02-10T03:49:52;100879.09;;;-8.65;100.00
70027;BME280;57506;50.092;15.804;2023-02-10T03:52:18;100874.84;;;-8.72;100.00
70027;BME280;57506;50.092;15.804;2023-02-10T03:54:43;100893.84;;;-8.62;100.00
70027;BME280;57506;50.092;15.804;2023-02-10T03:57:10;100890.41;;;-8.64;100.00
70027;BME280;57506;50.092;15.804;2023-02-10T03:59:36;100901.13;;;-8.38;100.00
70027;BME280;57506;50.092;15.804;2023-02-10T04:02:02;100907.94;;;-8.31;100.00
70027;BME280;57506;50.092;15.804;2023-02-10T04:04:28;100894.25;;;-8.42;100.00
70027;BME280;57506;50.092;15.804;2023-02-10T04:06:53;100922.31;;;-8.50;100.00
70027;BME280;57506;50.092;15.804;2023-02-10T04:09:19;100913.91;;;-8.64;100.00
70027;BME280;57506;50.092;15.804;2023-02-10T04:11:45;100911.47;;;-8.73;100.00
70027;BME280;57506;50.092;15.804;2023-02-10T04:14:10;100928.22;;;-8.84;100.00
70027;BME280;57506;50.092;15.804;2023-02-10T04:16:36;100934.69;;;-9.03;100.00
70027;BME280;57506;50.092;15.804;2023-02-10T04:19:02;100934.88;;;-9.12;100.00
70027;BME280;57506;50.092;15.804;2023-02-10T04:21:27;100937.78;;;-9.29;100.00
70027;BME280;57506;50.092;15.804;2023-02-10T04:23:53;100925.59;;;-9.28;100.00
70027;BME280;57506;50.092;15.804;2023-02-10T04:26:19;100947.03;;;-9.11;100.00
70027;BME280;57506;50.092;15.804;2023-02-10T04:28:44;100938.34;;;-9.11;100.00
70027;BME280;57506;50.092;15.804;2023-02-10T04:31:10;100931.66;;;-9.26;100.00
70027;BME280;57506;50.092;15.804;2023-02-10T04:33:36;100953.50;;;-9.32;100.00
70027;BME280;57506;50.092;15.804;2023-02-10T04:36:03;100945.63;;;-9.29;100.00
70027;BME280;57506;50.092;15.804;2023-02-10T04:38:29;100919.47;;;-9.26;100.00
70027;BME280;57506;50.092;15.804;2023-02-10T04:40:55;100930.78;;;-9.25;100.00
70027;BME280;57506;50.092;15.804;2023-02-10T04:43:20;100920.66;;;-9.43;100.00
70027;BME280;57506;50.092;15.804;2023-02-10T04:45:46;100946.56;;;-9.33;100.00
70027;BME280;57506;50.092;15.804;2023-02-10T04:48:12;100925.84;;;-9.42;100.00
70027;BME280;57506;50.092;15.804;2023-02-10T04:50:39;100934.44;;;-9.37;100.00
70027;BME280;57506;50.092;15.804;2023-02-10T04:53:05;100922.38;;;-9.42;100.00
70027;BME280;57506;50.092;15.804;2023-02-10T04:55:31;100946.75;;;-9.43;100.00
70027;BME280;57506;50.092;15.804;2023-02-10T04:57:57;100951.88;;;-9.39;100.00
70027;BME280;57506;50.092;15.804;2023-02-10T05:00:23;100958.97;;;-9.45;100.00
70027;BME280;57506;50.092;15.804;2023-02-10T05:02:48;100950.22;;;-9.43;100.00
70027;BME280;57506;50.092;15.804;2023-02-10T05:05:14;100935.38;;;-9.41;100.00
70027;BME280;57506;50.092;15.804;2023-02-10T05:07:39;100947.53;;;-9.40;100.00
70027;BME280;57506;50.092;15.804;2023-02-10T05:10:05;100961.59;;;-9.47;100.00
70027;BME280;57506;50.092;15.804;2023-02-10T05:12:31;100957.22;;;-9.46;100.00
70027;BME280;57506;50.092;15.804;2023-02-10T05:14:56;100970.22;;;-9.42;100.00
70027;BME280;57506;50.092;15.804;2023-02-10T05:17:22;100956.41;;;-9.50;100.00
70027;BME280;57506;50.092;15.804;2023-02-10T05:19:47;100966.53;;;-9.30;100.00
70027;BME280;57506;50.092;15.804;2023-02-10T05:22:13;100960.25;;;-9.22;100.00
70027;BME280;57506;50.092;15.804;2023-02-10T05:24:38;100948.50;;;-8.96;100.00
70027;BME280;57506;50.092;15.804;2023-02-10T05:27:04;100944.03;;;-8.91;100.00
70027;BME280;57506;50.092;15.804;2023-02-10T05:29:29;100964.75;;;-8.80;100.00
70027;BME280;57506;50.092;15.804;2023-02-10T05:31:55;100975.25;;;-8.84;100.00
70027;BME280;57506;50.092;15.804;2023-02-10T05:34:20;100981.03;;;-9.14;100.00
70027;BME280;57506;50.092;15.804;2023-02-10T05:36:46;101001.09;;;-9.16;100.00
70027;BME280;57506;50.092;15.804;2023-02-10T05:39:11;101002.78;;;-9.13;100.00
70027;BME280;57506;50.092;15.804;2023-02-10T05:41:54;101003.88;;;-9.25;100.00
70027;BME280;57506;50.092;15.804;2023-02-10T05:44:21;101005.72;;;-9.33;100.00
70027;BME280;57506;50.092;15.804;2023-02-10T05:46:48;100990.25;;;-9.44;100.00
70027;BME280;57506;50.092;15.804;2023-02-10T05:49:14;101012.91;;;-9.46;100.00
70027;BME280;57506;50.092;15.804;2023-02-10T05:51:40;101007.03;;;-9.60;100.00
70027;BME280;57506;50.092;15.804;2023-02-10T05:54:05;101021.66;;;-9.51;100.00
70027;BME280;57506;50.092;15.804;2023-02-10T05:56:31;101015.72;;;-9.60;100.00
70027;BME280;57506;50.092;15.804;2023-02-10T05:58:57;101014.88;;;-9.60;100.00
70027;BME280;57506;50.092;15.804;2023-02-10T06:01:23;101008.06;;;-9.72;100.00
70027;BME280;57506;50.092;15.804;2023-02-10T06:03:48;101019.44;;;-9.74;100.00
70027;BME280;57506;50.092;15.804;2023-02-10T06:06:14;101016.84;;;-9.76;100.00
70027;BME280;57506;50.092;15.804;2023-02-10T06:08:39;101004.78;;;-9.84;100.00
70027;BME280;57506;50.092;15.804;2023-02-10T06:11:05;101023.72;;;-9.73;100.00
70027;BME280;57506;50.092;15.804;2023-02-10T06:13:31;101022.81;;;-9.71;100.00
70027;BME280;57506;50.092;15.804;2023-02-10T06:15:57;101033.38;;;-9.78;100.00
70027;BME280;57506;50.092;15.804;2023-02-10T06:18:22;101039.09;;;-9.54;100.00
70027;BME280;57506;50.092;15.804;2023-02-10T06:20:48;101036.44;;;-9.49;100.00
70027;BME280;57506;50.092;15.804;2023-02-10T06:23:13;101026.16;;;-9.60;100.00
70027;BME280;57506;50.092;15.804;2023-02-10T06:25:39;101038.09;;;-9.43;100.00
70027;BME280;57506;50.092;15.804;2023-02-10T06:28:05;101038.03;;;-9.40;100.00
70027;BME280;57506;50.092;15.804;2023-02-10T06:30:31;101024.09;;;-9.41;100.00
70027;BME280;57506;50.092;15.804;2023-02-10T06:32:56;101032.00;;;-9.44;100.00
70027;BME280;57506;50.092;15.804;2023-02-10T06:35:22;101037.16;;;-9.41;100.00
70027;BME280;57506;50.092;15.804;2023-02-10T06:37:47;101032.78;;;-9.39;100.00
70027;BME280;57506;50.092;15.804;2023-02-10T06:40:13;101040.50;;;-9.31;100.00
70027;BME280;57506;50.092;15.804;2023-02-10T06:42:39;101032.25;;;-9.07;100.00
70027;BME280;57506;50.092;15.804;2023-02-10T06:45:04;101007.53;;;-8.88;100.00
70027;BME280;57506;50.092;15.804;2023-02-10T06:47:30;101020.28;;;-8.69;100.00
70027;BME280;57506;50.092;15.804;2023-02-10T06:49:56;101025.53;;;-8.72;100.00
70027;BME280;57506;50.092;15.804;2023-02-10T06:52:21;101032.56;;;-8.76;100.00
70027;BME280;57506;50.092;15.804;2023-02-10T06:54:50;101049.06;;;-8.72;100.00
70027;BME280;57506;50.092;15.804;2023-02-10T06:57:15;101036.84;;;-8.70;100.00
70027;BME280;57506;50.092;15.804;2023-02-10T06:59:41;101034.75;;;-8.52;100.00
70027;BME280;57506;50.092;15.804;2023-02-10T07:02:08;101039.69;;;-8.36;100.00
70027;BME280;57506;50.092;15.804;2023-02-10T07:04:35;101028.22;;;-8.31;100.00
70027;BME280;57506;50.092;15.804;2023-02-10T07:07:00;101024.00;;;-8.38;100.00
70027;BME280;57506;50.092;15.804;2023-02-10T07:09:26;101034.56;;;-8.01;100.00
70027;BME280;57506;50.092;15.804;2023-02-10T07:11:52;101034.81;;;-7.73;100.00
70027;BME280;57506;50.092;15.804;2023-02-10T07:14:17;101042.25;;;-7.55;100.00
70027;BME280;57506;50.092;15.804;2023-02-10T07:16:43;101043.84;;;-7.48;100.00
70027;BME280;57506;50.092;15.804;2023-02-10T07:19:08;101052.31;;;-7.36;100.00
70027;BME280;57506;50.092;15.804;2023-02-10T07:21:34;101053.84;;;-7.28;100.00
70027;BME280;57506;50.092;15.804;2023-02-10T07:24:00;101061.41;;;-7.14;100.00
70027;BME280;57506;50.092;15.804;2023-02-10T07:26:27;101055.81;;;-7.00;100.00
70027;BME280;57506;50.092;15.804;2023-02-10T07:28:52;101062.03;;;-6.71;100.00
70027;BME280;57506;50.092;15.804;2023-02-10T07:31:18;101072.16;;;-6.57;100.00
70027;BME280;57506;50.092;15.804;2023-02-10T07:33:44;101057.22;;;-6.53;100.00
70027;BME280;57506;50.092;15.804;2023-02-10T07:36:09;101063.06;;;-6.44;100.00
70027;BME280;57506;50.092;15.804;2023-02-10T07:38:35;101074.22;;;-6.36;100.00
70027;BME280;57506;50.092;15.804;2023-02-10T07:41:01;101069.78;;;-6.33;100.00
70027;BME280;57506;50.092;15.804;2023-02-10T07:43:27;101072.97;;;-6.22;100.00
70027;BME280;57506;50.092;15.804;2023-02-10T07:45:52;101047.72;;;-6.26;100.00
70027;BME280;57506;50.092;15.804;2023-02-10T07:48:18;101064.50;;;-6.01;100.00
70027;BME280;57506;50.092;15.804;2023-02-10T07:50:45;101065.06;;;-5.90;100.00
70027;BME280;57506;50.092;15.804;2023-02-10T07:53:12;101054.41;;;-5.85;100.00
70027;BME280;57506;50.092;15.804;2023-02-10T07:55:37;101053.94;;;-5.70;100.00
70027;BME280;57506;50.092;15.804;2023-02-10T07:58:04;101056.22;;;-5.59;100.00
70027;BME280;57506;50.092;15.804;2023-02-10T08:00:30;101058.94;;;-5.35;100.00
70027;BME280;57506;50.092;15.804;2023-02-10T08:02:55;101067.06;;;-5.14;100.00
70027;BME280;57506;50.092;15.804;2023-02-10T08:05:21;101080.25;;;-4.88;100.00
70027;BME280;57506;50.092;15.804;2023-02-10T08:07:47;101086.00;;;-4.77;100.00
70027;BME280;57506;50.092;15.804;2023-02-10T08:10:13;101098.25;;;-4.51;100.00
70027;BME280;57506;50.092;15.804;2023-02-10T08:12:38;101096.09;;;-4.38;100.00
70027;BME280;57506;50.092;15.804;2023-02-10T08:15:05;101110.56;;;-4.02;100.00
70027;BME280;57506;50.092;15.804;2023-02-10T08:17:31;101107.88;;;-3.75;100.00
70027;BME280;57506;50.092;15.804;2023-02-10T08:19:57;101138.63;;;-3.29;100.00
70027;BME280;57506;50.092;15.804;2023-02-10T08:22:23;101138.50;;;-3.04;100.00
70027;BME280;57506;50.092;15.804;2023-02-10T08:24:48;101132.19;;;-3.00;100.00
70027;BME280;57506;50.092;15.804;2023-02-10T08:27:14;101136.38;;;-2.95;100.00
70027;BME280;57506;50.092;15.804;2023-02-10T08:29:40;101142.94;;;-2.83;100.00
70027;BME280;57506;50.092;15.804;2023-02-10T08:32:05;101159.41;;;-2.76;100.00
70027;BME280;57506;50.092;15.804;2023-02-10T08:34:31;101147.72;;;-2.71;100.00
70027;BME280;57506;50.092;15.804;2023-02-10T08:36:56;101161.22;;;-2.57;100.00
70027;BME280;57506;50.092;15.804;2023-02-10T08:39:22;101155.81;;;-2.54;100.00
70027;BME280;57506;50.092;15.804;2023-02-10T08:41:48;101137.38;;;-2.33;100.00
70027;BME280;57506;50.092;15.804;2023-02-10T08:44:14;101152.81;;;-2.24;100.00
70027;BME280;57506;50.092;15.804;2023-02-10T08:46:39;101158.56;;;-2.15;100.00
70027;BME280;57506;50.092;15.804;2023-02-10T08:49:05;101155.06;;;-2.15;100.00
70027;BME280;57506;50.092;15.804;2023-02-10T08:51:31;101167.22;;;-1.91;100.00
70027;BME280;57506;50.092;15.804;2023-02-10T08:54:00;101162.41;;;-1.81;100.00
70027;BME280;57506;50.092;15.804;2023-02-10T08:56:25;101160.72;;;-1.63;100.00
70027;BME280;57506;50.092;15.804;2023-02-10T08:58:51;101164.66;;;-1.53;100.00
70027;BME280;57506;50.092;15.804;2023-02-10T09:01:19;101165.56;;;-1.34;100.00
70027;BME280;57506;50.092;15.804;2023-02-10T09:03:45;101168.22;;;-1.15;100.00
70027;BME280;57506;50.092;15.804;2023-02-10T09:06:13;101158.19;;;-1.27;100.00
70027;BME280;57506;50.092;15.804;2023-02-10T09:08:41;101173.72;;;-1.01;100.00
70027;BME280;57506;50.092;15.804;2023-02-10T09:11:07;101160.63;;;-1.04;100.00
70027;BME280;57506;50.092;15.804;2023-02-10T09:13:33;101162.91;;;-0.96;100.00
70027;BME280;57506;50.092;15.804;2023-02-10T09:15:59;101168.75;;;-0.71;100.00
70027;BME280;57506;50.092;15.804;2023-02-10T09:18:24;101163.47;;;-0.71;100.00
70027;BME280;57506;50.092;15.804;2023-02-10T09:20:50;101168.97;;;-0.40;100.00
70027;BME280;57506;50.092;15.804;2023-02-10T09:23:15;101161.81;;;-0.03;100.00
70027;BME280;57506;50.092;15.804;2023-02-10T09:25:41;101149.81;;;-0.10;100.00
70027;BME280;57506;50.092;15.804;2023-02-10T09:28:06;101152.00;;;0.16;100.00
70027;BME280;57506;50.092;15.804;2023-02-10T09:30:34;101149.47;;;0.30;100.00
70027;BME280;57506;50.092;15.804;2023-02-10T09:32:59;101160.19;;;0.12;99.73
70027;BME280;57506;50.092;15.804;2023-02-10T09:35:25;101160.25;;;0.10;100.00
70027;BME280;57506;50.092;15.804;2023-02-10T09:37:50;101159.69;;;0.21;100.00
70027;BME280;57506;50.092;15.804;2023-02-10T09:40:23;101167.06;;;0.49;97.51
70027;BME280;57506;50.092;15.804;2023-02-10T09:43:07;101170.44;;;0.00;96.32
70027;BME280;57506;50.092;15.804;2023-02-10T09:45:37;101180.34;;;-0.38;97.16
70027;BME280;57506;50.092;15.804;2023-02-10T09:48:56;101150.22;;;-0.71;100.00
70027;BME280;57506;50.092;15.804;2023-02-10T09:51:18;101187.31;;;-0.54;100.00
70027;BME280;57506;50.092;15.804;2023-02-10T09:53:49;101195.81;;;-0.83;99.91
70027;BME280;57506;50.092;15.804;2023-02-10T09:56:19;101185.84;;;-0.97;99.68
70027;BME280;57506;50.092;15.804;2023-02-10T09:58:49;101179.28;;;-0.88;100.00
70027;BME280;57506;50.092;15.804;2023-02-10T10:02:19;101186.22;;;-0.67;99.65
70027;BME280;57506;50.092;15.804;2023-02-10T10:04:24;101182.75;;;-0.50;100.00
70027;BME280;57506;50.092;15.804;2023-02-10T10:06:55;101171.13;;;-0.65;100.00
70027;BME280;57506;50.092;15.804;2023-02-10T10:10:04;101194.94;;;-0.65;97.85
70027;BME280;57506;50.092;15.804;2023-02-10T10:12:22;101184.44;;;-0.85;96.43
70027;BME280;57506;50.092;15.804;2023-02-10T10:14:48;101190.34;;;-0.80;98.70
70027;BME280;57506;50.092;15.804;2023-02-10T10:27:55;101207.16;;;-0.09;96.71
70027;BME280;57506;50.092;15.804;2023-02-10T10:30:47;101215.75;;;-0.21;94.60
70027;BME280;57506;50.092;15.804;2023-02-10T10:34:08;101203.56;;;-0.25;94.58
70027;BME280;57506;50.092;15.804;2023-02-10T10:36:45;101201.84;;;-0.26;93.96
70027;BME280;57506;50.092;15.804;2023-02-10T10:39:30;101199.69;;;-0.18;95.37
70027;BME280;57506;50.092;15.804;2023-02-10T10:42:01;101202.50;;;-0.04;94.70
70027;BME280;57506;50.092;15.804;2023-02-10T10:44:29;101192.13;;;0.09;93.89
70027;BME280;57506;50.092;15.804;2023-02-10T10:47:30;101188.47;;;0.28;93.62
70027;BME280;57506;50.092;15.804;2023-02-10T10:49:52;101186.97;;;0.40;92.71
70027;BME280;57506;50.092;15.804;2023-02-10T10:52:30;101178.22;;;0.38;92.02
70027;BME280;57506;50.092;15.804;2023-02-10T10:55:12;101183.91;;;0.48;91.65
70027;BME280;57506;50.092;15.804;2023-02-10T10:57:40;101179.97;;;0.55;91.06
70027;BME280;57506;50.092;15.804;2023-02-10T11:00:26;101165.94;;;0.53;90.69
70027;BME280;57506;50.092;15.804;2023-02-10T11:03:00;101167.97;;;0.65;90.13
70027;BME280;57506;50.092;15.804;2023-02-10T11:05:32;101155.19;;;0.72;89.86
70027;BME280;57506;50.092;15.804;2023-02-10T11:07:59;101160.19;;;0.78;88.93
70027;BME280;57506;50.092;15.804;2023-02-10T11:10:47;101167.06;;;0.97;88.24
70027;BME280;57506;50.092;15.804;2023-02-10T11:13:18;101165.69;;;1.06;86.74
70027;BME280;57506;50.092;15.804;2023-02-10T11:15:46;101170.22;;;1.04;86.44
70027;BME280;57506;50.092;15.804;2023-02-10T11:18:18;101170.75;;;1.11;87.14
70027;BME280;57506;50.092;15.804;2023-02-10T11:21:11;101178.72;;;1.11;86.33
70027;BME280;57506;50.092;15.804;2023-02-10T11:23:52;101182.81;;;1.16;86.60
70027;BME280;57506;50.092;15.804;2023-02-10T11:26:23;101180.22;;;1.30;86.45
70027;BME280;57506;50.092;15.804;2023-02-10T11:28:50;101183.16;;;1.10;86.86
70027;BME280;57506;50.092;15.804;2023-02-10T11:33:55;101181.69;;;1.04;86.46
70027;BME280;57506;50.092;15.804;2023-02-10T11:36:38;101174.41;;;1.08;88.04
70027;BME280;57506;50.092;15.804;2023-02-10T11:39:06;101160.28;;;1.08;86.55
70027;BME280;57506;50.092;15.804;2023-02-10T11:41:33;101171.44;;;1.30;84.92
70027;BME280;57506;50.092;15.804;2023-02-10T11:43:59;101169.13;;;1.24;86.98
70027;BME280;57506;50.092;15.804;2023-02-10T11:46:27;101155.66;;;1.27;86.71
70027;BME280;57506;50.092;15.804;2023-02-10T11:51:19;101179.88;;;1.52;84.80
70027;BME280;57506;50.092;15.804;2023-02-10T11:53:45;101162.59;;;1.45;83.14
70027;BME280;57506;50.092;15.804;2023-02-10T11:56:38;101158.63;;;1.36;84.13
70027;BME280;57506;50.092;15.804;2023-02-10T12:05:28;101158.16;;;1.75;82.96
70027;BME280;57506;50.092;15.804;2023-02-10T12:10:48;101155.66;;;1.72;83.91
70027;BME280;57506;50.092;15.804;2023-02-10T12:52:09;101125.72;;;1.99;80.06
70027;BME280;57506;50.092;15.804;2023-02-10T12:54:48;101136.53;;;1.96;80.61
70027;BME280;57506;50.092;15.804;2023-02-10T13:02:36;101116.78;;;1.86;82.03
70027;BME280;57506;50.092;15.804;2023-02-10T13:05:14;101111.03;;;1.93;81.93
70027;BME280;57506;50.092;15.804;2023-02-10T13:10:18;101117.50;;;2.32;81.45
70027;BME280;57506;50.092;15.804;2023-02-10T13:12:47;101109.72;;;2.29;80.71
70027;BME280;57506;50.092;15.804;2023-02-10T13:17:47;101109.78;;;1.99;81.88
70027;BME280;57506;50.092;15.804;2023-02-10T13:26:12;101117.31;;;1.62;82.77
70027;BME280;57506;50.092;15.804;2023-02-10T13:34:31;101129.00;;;1.44;84.72
70027;BME280;57506;50.092;15.804;2023-02-10T13:39:30;101130.75;;;1.14;86.95
70027;BME280;57506;50.092;15.804;2023-02-10T13:42:17;101131.50;;;1.00;86.83
70027;BME280;57506;50.092;15.804;2023-02-10T13:45:17;101132.28;;;0.86;87.67
70027;BME280;57506;50.092;15.804;2023-02-10T13:52:52;101130.22;;;0.91;88.85
70027;BME280;57506;50.092;15.804;2023-02-10T13:58:24;101129.19;;;1.10;89.86
70027;BME280;57506;50.092;15.804;2023-02-10T14:00:45;101134.84;;;1.19;89.18
70027;BME280;57506;50.092;15.804;2023-02-10T14:05:50;101136.13;;;1.28;87.51
70027;BME280;57506;50.092;15.804;2023-02-10T14:08:41;101136.22;;;1.26;88.71
70027;BME280;57506;50.092;15.804;2023-02-10T14:13:41;101128.84;;;1.16;90.43
70027;BME280;57506;50.092;15.804;2023-02-10T14:19:04;101134.50;;;1.10;90.37
70027;BME280;57506;50.092;15.804;2023-02-10T14:21:39;101141.38;;;1.14;91.27
70027;BME280;57506;50.092;15.804;2023-02-10T14:24:12;101140.16;;;1.19;90.75
70027;BME280;57506;50.092;15.804;2023-02-10T14:26:42;101142.72;;;1.21;91.40
70027;BME280;57506;50.092;15.804;2023-02-10T14:29:14;101109.38;;;1.15;90.57
70027;BME280;57506;50.092;15.804;2023-02-10T14:31:41;101128.81;;;1.31;90.31
70027;BME280;57506;50.092;15.804;2023-02-10T14:37:10;101127.88;;;1.32;90.56
70027;BME280;57506;50.092;15.804;2023-02-10T14:39:39;101131.41;;;1.33;90.71
70027;BME280;57506;50.092;15.804;2023-02-10T14:42:06;101126.28;;;1.30;90.51
70027;BME280;57506;50.092;15.804;2023-02-10T14:47:03;101124.81;;;1.24;90.21
70027;BME280;57506;50.092;15.804;2023-02-10T14:49:29;101116.69;;;1.12;90.45
70027;BME280;57506;50.092;15.804;2023-02-10T14:52:01;101128.66;;;1.19;89.93
70027;BME280;57506;50.092;15.804;2023-02-10T14:54:26;101130.91;;;1.11;90.34
70027;BME280;57506;50.092;15.804;2023-02-10T14:57:02;101112.41;;;0.93;90.99